createdAt,value
2017-08-10T00:00:59.266Z,7.03
2017-08-10T00:03:25.202Z,7.57
2017-08-10T00:05:51.149Z,7.37
2017-08-10T00:08:17.103Z,5.20
2017-08-10T00:10:43.047Z,5.93
2017-08-10T00:13:08.988Z,7.13
2017-08-10T00:15:34.915Z,5.70
2017-08-10T00:18:00.862Z,5.80
2017-08-10T00:20:26.798Z,6.00
2017-08-10T00:22:52.796Z,6.50
2017-08-10T00:25:18.749Z,5.03
2017-08-10T00:27:44.724Z,4.90
2017-08-10T00:30:10.669Z,4.40
2017-08-10T00:32:36.611Z,4.43
2017-08-10T00:35:02.596Z,4.53
2017-08-10T00:37:28.536Z,4.20
2017-08-10T00:39:54.493Z,4.80
2017-08-10T00:42:20.450Z,5.03
2017-08-10T00:44:46.401Z,6.10
2017-08-10T00:47:13.131Z,5.20
2017-08-10T00:49:39.073Z,5.00
2017-08-10T00:52:06.803Z,5.03
2017-08-10T00:54:33.009Z,4.43
2017-08-10T00:56:59.007Z,5.27
2017-08-10T00:59:25.029Z,4.70
2017-08-10T01:01:50.994Z,5.03
2017-08-10T01:04:16.951Z,5.00
2017-08-10T01:06:42.887Z,6.13
2017-08-10T01:09:08.833Z,5.87
2017-08-10T01:11:35.510Z,6.53
2017-08-10T01:14:01.461Z,6.40
2017-08-10T01:16:27.439Z,6.40
2017-08-10T01:18:54.128Z,6.00
2017-08-10T01:21:20.072Z,5.83
2017-08-10T01:23:46.009Z,5.33
2017-08-10T01:26:11.937Z,5.50
2017-08-10T01:28:40.773Z,5.30
2017-08-10T01:31:07.438Z,5.00
2017-08-10T01:33:33.459Z,4.83
2017-08-10T01:35:59.442Z,5.10
2017-08-10T01:38:25.365Z,6.00
2017-08-10T01:40:51.286Z,4.50
2017-08-10T01:46:07.773Z,4.87
2017-08-10T01:51:24.216Z,4.67
2017-08-10T01:53:50.169Z,5.27
2017-08-10T01:59:07.277Z,4.63
2017-08-10T02:01:33.814Z,4.93
2017-08-10T02:03:59.745Z,5.50
2017-08-10T02:06:25.678Z,5.50
2017-08-10T02:08:51.623Z,5.40
2017-08-10T02:11:18.308Z,5.30
2017-08-10T02:13:44.237Z,5.60
2017-08-10T02:16:10.186Z,6.07
2017-08-10T02:18:36.117Z,4.93
2017-08-10T02:21:02.058Z,5.17
2017-08-10T02:23:28.027Z,5.37
2017-08-10T02:25:53.985Z,6.40
2017-08-10T02:28:19.921Z,5.60
2017-08-10T02:30:45.897Z,5.50
2017-08-10T02:33:11.821Z,5.40
2017-08-10T02:35:38.473Z,5.90
2017-08-10T02:38:04.412Z,6.20
2017-08-10T02:40:30.325Z,5.70
2017-08-10T02:42:56.990Z,4.80
2017-08-10T02:45:22.911Z,4.90
2017-08-10T02:47:48.826Z,5.73
2017-08-10T02:50:14.750Z,6.03
2017-08-10T02:52:41.468Z,5.67
2017-08-10T02:55:07.406Z,6.10
2017-08-10T02:57:34.081Z,5.40
2017-08-10T03:00:00.007Z,5.80
2017-08-10T03:02:25.934Z,6.43
2017-08-10T03:04:51.864Z,6.80
2017-08-10T03:07:17.791Z,5.43
2017-08-10T03:09:43.712Z,4.80
2017-08-10T03:12:09.645Z,5.00
2017-08-10T03:14:35.582Z,5.73
2017-08-10T03:17:01.506Z,6.23
2017-08-10T03:19:27.438Z,6.10
2017-08-10T03:21:53.352Z,6.80
2017-08-10T03:24:19.284Z,6.50
2017-08-10T03:26:45.213Z,6.43
2017-08-10T03:29:11.149Z,6.00
2017-08-10T03:31:37.110Z,7.90
2017-08-10T03:34:03.055Z,7.77
2017-08-10T03:36:28.974Z,8.30
2017-08-10T03:38:54.897Z,9.17
2017-08-10T03:41:20.817Z,9.30
2017-08-10T03:43:46.745Z,11.40
2017-08-10T03:46:12.701Z,10.47
2017-08-10T03:48:39.366Z,9.33
2017-08-10T03:51:05.279Z,10.50
2017-08-10T03:53:32.001Z,11.27
2017-08-10T03:55:57.937Z,9.40
2017-08-10T03:58:24.717Z,10.30
2017-08-10T04:00:50.702Z,9.87
2017-08-10T04:03:16.688Z,10.23
2017-08-10T04:05:42.602Z,7.60
2017-08-10T04:08:08.549Z,8.47
2017-08-10T04:10:34.509Z,8.00
2017-08-10T04:13:00.435Z,9.20
2017-08-10T04:15:26.372Z,7.27
2017-08-10T04:17:52.298Z,7.33
2017-08-10T04:20:18.223Z,7.27
2017-08-10T04:22:44.153Z,6.60
2017-08-10T04:25:10.082Z,7.10
2017-08-10T04:27:35.993Z,7.00
2017-08-10T04:30:01.935Z,6.70
2017-08-10T04:32:27.869Z,6.50
2017-08-10T04:34:53.814Z,7.93
2017-08-10T04:37:20.471Z,7.07
2017-08-10T04:39:46.388Z,6.87
2017-08-10T04:42:12.337Z,7.10
2017-08-10T04:44:38.270Z,7.00
2017-08-10T04:47:04.196Z,6.07
2017-08-10T04:49:30.113Z,7.97
2017-08-10T04:51:56.013Z,6.30
2017-08-10T04:54:22.709Z,7.47
2017-08-10T04:56:48.629Z,8.33
2017-08-10T04:59:14.561Z,8.20
2017-08-10T05:01:40.505Z,7.43
2017-08-10T05:04:06.445Z,5.97
2017-08-10T05:06:32.369Z,7.63
2017-08-10T05:08:58.309Z,6.60
2017-08-10T05:11:25.009Z,5.53
2017-08-10T05:13:50.959Z,6.33
2017-08-10T05:16:16.913Z,6.43
2017-08-10T05:18:42.858Z,6.83
2017-08-10T05:21:08.785Z,6.57
2017-08-10T05:23:34.770Z,6.40
2017-08-10T05:26:00.722Z,6.67
2017-08-10T05:28:27.422Z,5.40
2017-08-10T05:30:53.373Z,4.90
2017-08-10T05:33:19.353Z,5.20
2017-08-10T05:35:45.337Z,4.50
2017-08-10T05:38:11.279Z,4.53
2017-08-10T05:40:38.048Z,4.80
2017-08-10T05:43:03.999Z,4.97
2017-08-10T05:45:29.937Z,5.30
2017-08-10T05:47:55.894Z,4.97
2017-08-10T05:50:21.870Z,5.07
2017-08-10T05:52:47.843Z,6.03
2017-08-10T05:55:13.791Z,5.70
2017-08-10T05:57:57.721Z,6.60
2017-08-10T06:00:23.669Z,5.10
2017-08-10T06:02:50.361Z,5.70
2017-08-10T06:05:16.301Z,5.80
2017-08-10T06:07:42.234Z,5.30
2017-08-10T06:10:08.145Z,5.23
2017-08-10T06:12:34.066Z,6.13
2017-08-10T06:15:00.026Z,6.20
2017-08-10T06:17:30.979Z,7.20
2017-08-10T06:19:56.917Z,6.30
2017-08-10T06:22:23.581Z,6.80
2017-08-10T06:24:57.831Z,6.67
2017-08-10T06:27:23.874Z,7.20
2017-08-10T06:29:49.782Z,6.17
2017-08-10T06:32:15.745Z,7.13
2017-08-10T06:34:41.662Z,5.73
2017-08-10T06:37:07.626Z,6.50
2017-08-10T06:39:33.552Z,5.83
2017-08-10T06:42:00.197Z,5.30
2017-08-10T06:44:26.122Z,6.30
2017-08-10T06:46:52.098Z,6.67
2017-08-10T06:49:18.043Z,5.97
2017-08-10T06:51:43.967Z,6.87
2017-08-10T06:54:09.901Z,6.30
2017-08-10T06:56:35.813Z,6.10
2017-08-10T06:59:01.745Z,5.90
2017-08-10T07:01:27.722Z,6.50
2017-08-10T07:03:53.644Z,4.70
2017-08-10T07:06:19.583Z,6.93
2017-08-10T07:08:45.521Z,6.00
2017-08-10T07:11:11.473Z,5.80
2017-08-10T07:13:37.437Z,5.60
2017-08-10T07:16:04.137Z,5.33
2017-08-10T07:18:30.078Z,5.13
2017-08-10T07:20:56.009Z,5.00
2017-08-10T07:23:21.948Z,4.40
2017-08-10T07:25:47.887Z,3.83
2017-08-10T07:28:13.821Z,3.43
2017-08-10T07:30:40.493Z,2.93
2017-08-10T07:33:06.451Z,4.77
2017-08-10T07:35:32.446Z,3.47
2017-08-10T07:37:58.376Z,3.80
2017-08-10T07:40:24.353Z,3.53
2017-08-10T07:42:50.301Z,4.20
2017-08-10T07:45:16.245Z,3.47
2017-08-10T07:47:42.906Z,3.50
2017-08-10T07:50:08.863Z,3.80
2017-08-10T07:52:34.832Z,3.50
2017-08-10T07:55:00.782Z,3.40
2017-08-10T07:57:26.726Z,3.90
2017-08-10T07:59:52.725Z,4.47
2017-08-10T08:02:19.392Z,4.33
2017-08-10T08:04:45.347Z,4.37
2017-08-10T08:07:11.316Z,5.20
2017-08-10T08:09:37.250Z,4.10
2017-08-10T08:12:03.211Z,4.63
2017-08-10T08:14:29.155Z,4.80
2017-08-10T08:16:55.094Z,5.47
2017-08-10T08:19:21.025Z,4.10
2017-08-10T08:21:46.982Z,3.70
2017-08-10T08:24:13.680Z,3.60
2017-08-10T08:26:39.618Z,4.03
2017-08-10T08:29:05.577Z,4.10
2017-08-10T08:31:32.329Z,4.13
2017-08-10T08:33:59.084Z,4.10
2017-08-10T08:36:25.801Z,4.10
2017-08-10T08:38:51.775Z,3.27
2017-08-10T08:41:17.865Z,2.83
2017-08-10T08:44:00.581Z,3.47
2017-08-10T08:46:26.561Z,3.27
2017-08-10T08:48:52.516Z,5.40
2017-08-10T08:51:18.469Z,3.80
2017-08-10T08:53:45.163Z,4.07
2017-08-10T08:56:29.209Z,4.20
2017-08-10T08:58:55.212Z,4.10
2017-08-10T09:01:21.177Z,3.70
2017-08-10T09:03:47.184Z,2.87
2017-08-10T09:06:13.168Z,2.40
2017-08-10T09:08:39.916Z,2.80
2017-08-10T09:11:06.569Z,2.53
2017-08-10T09:13:32.519Z,2.47
2017-08-10T09:15:58.437Z,2.93
2017-08-10T09:18:24.382Z,2.50
2017-08-10T09:20:50.294Z,1.87
2017-08-10T09:23:16.206Z,2.43
2017-08-10T09:25:42.139Z,2.30
2017-08-10T09:28:08.151Z,2.57
2017-08-10T09:30:34.859Z,2.20
2017-08-10T09:33:00.797Z,2.43
2017-08-10T09:35:26.735Z,2.20
2017-08-10T09:37:52.653Z,2.63
2017-08-10T09:40:18.596Z,2.33
2017-08-10T09:42:44.517Z,2.80
2017-08-10T09:45:10.460Z,3.47
2017-08-10T09:47:37.130Z,3.10
2017-08-10T09:50:03.041Z,4.93
2017-08-10T09:52:29.767Z,3.70
2017-08-10T09:54:55.676Z,4.17
2017-08-10T09:57:21.641Z,3.77
2017-08-10T09:59:48.295Z,3.67
2017-08-10T10:02:14.225Z,2.80
2017-08-10T10:04:40.137Z,3.50
2017-08-10T10:07:06.794Z,2.80
2017-08-10T10:09:32.848Z,2.67
2017-08-10T10:11:58.801Z,3.23
2017-08-10T10:14:34.932Z,3.17
2017-08-10T10:17:00.892Z,2.97
2017-08-10T10:19:26.817Z,2.77
2017-08-10T10:21:52.778Z,3.60
2017-08-10T10:24:19.489Z,3.50
2017-08-10T10:26:47.509Z,3.23
2017-08-10T10:29:13.522Z,3.13
2017-08-10T10:31:40.284Z,2.57
2017-08-10T10:34:06.245Z,4.00
2017-08-10T10:36:32.193Z,3.07
2017-08-10T10:38:59.180Z,3.63
2017-08-10T10:41:25.113Z,3.40
2017-08-10T10:43:51.051Z,3.50
2017-08-10T10:46:17.013Z,2.40
2017-08-10T10:48:42.957Z,2.77
2017-08-10T10:51:08.939Z,2.87
2017-08-10T10:53:34.877Z,2.70
2017-08-10T10:56:00.822Z,2.40
2017-08-10T10:58:29.152Z,2.43
2017-08-10T11:00:55.135Z,2.60
2017-08-10T11:03:21.077Z,2.43
2017-08-10T11:05:47.093Z,3.20
2017-08-10T11:08:13.066Z,2.43
2017-08-10T11:10:39.792Z,2.33
2017-08-10T11:13:05.729Z,2.23
2017-08-10T11:15:43.074Z,2.33
2017-08-10T11:18:08.997Z,2.50
2017-08-10T11:20:34.970Z,3.17
2017-08-10T11:23:00.902Z,2.77
2017-08-10T11:28:27.037Z,4.10
2017-08-10T11:30:53.727Z,2.43
2017-08-10T11:33:19.700Z,3.30
2017-08-10T11:36:06.184Z,2.83
2017-08-10T11:38:32.139Z,2.90
2017-08-10T11:40:58.052Z,2.50
2017-08-10T11:43:24.757Z,2.70
2017-08-10T11:45:50.689Z,2.80
2017-08-10T11:48:16.643Z,3.00
2017-08-10T11:50:42.579Z,2.57
2017-08-10T11:53:08.506Z,2.77
2017-08-10T11:55:35.270Z,2.97
2017-08-10T11:58:12.981Z,3.00
2017-08-10T12:00:38.908Z,3.30
2017-08-10T12:03:04.825Z,3.40
2017-08-10T12:05:30.774Z,3.07
2017-08-10T12:07:56.843Z,2.63
2017-08-10T12:10:22.796Z,2.80
2017-08-10T12:12:48.776Z,3.47
2017-08-10T12:15:14.729Z,2.83
2017-08-10T12:17:40.673Z,2.30
2017-08-10T12:20:07.409Z,2.30
2017-08-10T12:22:33.373Z,3.03
2017-08-10T12:25:00.049Z,2.53
2017-08-10T12:27:26.016Z,2.90
2017-08-10T12:29:54.307Z,2.73
2017-08-10T12:32:20.305Z,2.73
2017-08-10T12:34:46.276Z,3.20
2017-08-10T12:37:13.059Z,2.50
2017-08-10T12:39:39.032Z,2.60
2017-08-10T12:42:05.730Z,3.03
2017-08-10T12:44:31.668Z,17.37
2017-08-10T12:46:57.647Z,4.70
2017-08-10T12:49:23.597Z,3.07
2017-08-10T12:51:49.552Z,3.00
2017-08-10T12:54:15.559Z,2.50
2017-08-10T12:56:41.523Z,3.73
2017-08-10T12:59:18.244Z,2.77
2017-08-10T13:01:44.785Z,2.97
2017-08-10T13:04:10.750Z,3.10
2017-08-10T13:06:36.703Z,2.67
2017-08-10T13:09:02.663Z,3.00
2017-08-10T13:11:29.379Z,2.93
2017-08-10T13:13:55.444Z,2.57
2017-08-10T13:16:22.142Z,3.17
2017-08-10T13:18:48.118Z,3.10
2017-08-10T13:21:14.118Z,3.33
2017-08-10T13:23:40.941Z,3.10
2017-08-10T13:26:06.898Z,3.50
2017-08-10T13:28:32.867Z,3.40
2017-08-10T13:30:58.854Z,3.20
2017-08-10T13:33:25.567Z,3.43
2017-08-10T13:35:51.526Z,3.60
2017-08-10T13:38:17.487Z,3.47
2017-08-10T13:40:43.485Z,4.03
2017-08-10T13:43:09.439Z,4.60
2017-08-10T13:45:35.393Z,3.97
2017-08-10T13:48:01.671Z,3.87
2017-08-10T13:56:09.094Z,3.83
2017-08-10T13:58:35.764Z,3.87
2017-08-10T14:01:01.737Z,4.23
2017-08-10T14:03:27.680Z,3.40
2017-08-10T14:05:53.601Z,4.70
2017-08-10T14:08:19.587Z,4.23
2017-08-10T14:10:45.600Z,4.67
2017-08-10T14:13:16.128Z,4.63
2017-08-10T14:21:23.503Z,4.50
2017-08-10T14:23:49.487Z,4.20
2017-08-10T14:26:17.566Z,5.00
2017-08-10T14:28:43.501Z,4.47
2017-08-10T14:31:09.477Z,5.87
2017-08-10T14:33:35.440Z,4.53
2017-08-10T14:36:14.721Z,3.40
2017-08-10T14:38:40.674Z,3.37
2017-08-10T14:41:07.399Z,4.93
2017-08-10T14:43:33.345Z,4.07
2017-08-10T14:46:03.267Z,3.30
2017-08-10T14:48:29.212Z,4.20
2017-08-10T14:50:55.190Z,3.50
2017-08-10T14:53:21.147Z,3.30
2017-08-10T15:07:28.114Z,3.67
2017-08-10T15:10:06.712Z,3.90
2017-08-10T15:12:32.674Z,4.03
2017-08-10T15:14:58.622Z,3.00
2017-08-10T15:17:25.341Z,3.63
2017-08-10T15:19:51.327Z,4.97
2017-08-10T15:22:17.322Z,5.70
2017-08-10T15:24:44.134Z,3.70
2017-08-10T15:27:10.590Z,4.67
2017-08-10T15:29:36.576Z,4.27
2017-08-10T15:32:02.612Z,4.07
2017-08-10T15:34:28.589Z,4.60
2017-08-10T15:36:54.555Z,3.60
2017-08-10T15:39:20.478Z,3.73
2017-08-10T15:41:46.410Z,4.40
2017-08-10T15:44:12.387Z,4.47
2017-08-10T15:46:38.318Z,5.00
2017-08-10T15:49:04.277Z,4.97
2017-08-10T15:51:30.975Z,4.63
2017-08-10T15:53:56.922Z,7.90
2017-08-10T15:56:22.946Z,8.23
2017-08-10T15:58:48.907Z,4.13
2017-08-10T16:01:14.911Z,4.67
2017-08-10T16:03:40.894Z,3.60
2017-08-10T16:06:07.083Z,4.50
2017-08-10T16:08:33.030Z,5.60
2017-08-10T16:10:58.988Z,4.50
2017-08-10T16:13:24.946Z,5.17
2017-08-10T16:15:50.910Z,5.10
2017-08-10T16:18:16.879Z,5.50
2017-08-10T16:20:42.830Z,7.30
2017-08-10T16:23:08.771Z,4.50
2017-08-10T16:25:34.689Z,3.57
2017-08-10T16:28:00.659Z,4.00
2017-08-10T16:30:26.637Z,5.30
2017-08-10T16:32:52.590Z,4.20
2017-08-10T16:35:18.525Z,4.67
2017-08-10T16:37:45.242Z,4.50
2017-08-10T16:40:11.260Z,4.83
2017-08-10T16:42:41.559Z,4.23
2017-08-10T16:45:07.526Z,4.90
2017-08-10T16:47:33.489Z,4.97
2017-08-10T16:50:00.201Z,4.80
2017-08-10T16:52:26.151Z,5.00
2017-08-10T16:54:52.855Z,4.90
2017-08-10T16:57:18.915Z,5.20
2017-08-10T16:59:44.962Z,5.37
2017-08-10T17:02:11.642Z,4.90
2017-08-10T17:04:44.431Z,4.93
2017-08-10T17:07:10.532Z,4.87
2017-08-10T17:09:36.510Z,3.63
2017-08-10T17:12:25.261Z,4.27
2017-08-10T17:14:51.206Z,3.90
2017-08-10T17:17:17.917Z,3.87
2017-08-10T17:22:40.862Z,4.50
2017-08-10T17:25:06.948Z,3.80
2017-08-10T17:27:33.667Z,3.50
2017-08-10T17:30:02.314Z,3.73
2017-08-10T17:32:28.390Z,3.63
2017-08-10T17:34:54.402Z,4.27
2017-08-10T17:37:20.394Z,3.63
2017-08-10T17:39:46.394Z,2.50
2017-08-10T17:42:12.387Z,3.90
2017-08-10T17:50:21.560Z,3.00
2017-08-10T17:52:47.556Z,3.47
2017-08-10T17:55:29.051Z,3.40
2017-08-10T17:57:54.998Z,3.30
2017-08-10T18:00:20.975Z,4.57
2017-08-10T18:02:46.950Z,3.60
2017-08-10T18:05:12.933Z,3.50
2017-08-10T18:07:38.927Z,4.17
2017-08-10T18:10:05.260Z,4.37
2017-08-10T18:12:31.292Z,4.63
2017-08-10T18:14:57.276Z,4.40
2017-08-10T18:17:23.216Z,4.80
2017-08-10T18:19:49.304Z,5.20
2017-08-10T18:22:15.249Z,5.80
2017-08-10T18:24:41.200Z,5.63
2017-08-10T18:27:07.179Z,6.00
2017-08-10T18:29:35.866Z,6.17
2017-08-10T18:32:02.548Z,5.57
2017-08-10T18:34:28.603Z,5.20
2017-08-10T18:36:54.575Z,4.90
2017-08-10T18:39:20.539Z,6.90
2017-08-10T18:41:46.497Z,5.10
2017-08-10T18:44:12.472Z,5.70
2017-08-10T18:46:38.425Z,5.40
2017-08-10T18:49:04.673Z,6.20
2017-08-10T18:51:30.632Z,4.70
2017-08-10T18:53:57.313Z,6.00
2017-08-10T18:56:23.296Z,6.67
2017-08-10T18:58:49.333Z,5.80
2017-08-10T19:01:16.095Z,6.13
2017-08-10T19:03:42.140Z,7.10
2017-08-10T19:06:08.103Z,6.07
2017-08-10T19:08:34.086Z,7.10
2017-08-10T19:11:00.770Z,5.20
2017-08-10T19:13:26.744Z,6.10
2017-08-10T19:15:53.467Z,6.07
2017-08-10T19:18:19.437Z,5.47
2017-08-10T19:20:46.109Z,6.47
2017-08-10T19:23:12.101Z,6.70
2017-08-10T19:25:38.794Z,6.40
2017-08-10T19:28:04.806Z,6.43
2017-08-10T19:30:30.790Z,6.23
2017-08-10T19:32:57.462Z,6.10
2017-08-10T19:35:23.443Z,6.13
2017-08-10T19:37:49.392Z,5.90
2017-08-10T19:40:16.161Z,5.80
2017-08-10T19:42:42.127Z,6.70
2017-08-10T19:45:08.081Z,6.40
2017-08-10T19:47:34.020Z,6.77
2017-08-10T19:50:00.744Z,7.13
2017-08-10T19:52:27.412Z,7.57
2017-08-10T19:54:54.117Z,7.03
2017-08-10T19:57:20.376Z,5.50
2017-08-10T19:59:46.404Z,6.60
2017-08-10T20:02:12.384Z,6.23
2017-08-10T20:04:38.349Z,5.67
2017-08-10T20:07:04.332Z,5.73
2017-08-10T20:09:30.306Z,6.40
2017-08-10T20:11:56.614Z,6.63
2017-08-10T20:14:26.912Z,7.00
2017-08-10T20:16:52.882Z,6.20
2017-08-10T20:19:18.849Z,7.13
2017-08-10T20:21:44.815Z,6.70
2017-08-10T20:24:10.814Z,6.60
2017-08-10T20:26:37.547Z,6.33
2017-08-10T20:29:03.495Z,6.37
2017-08-10T20:31:29.453Z,6.80
2017-08-10T20:33:55.411Z,6.37
2017-08-10T20:36:21.411Z,6.40
2017-08-10T20:38:47.364Z,5.80
2017-08-10T20:41:13.330Z,6.87
2017-08-10T20:43:39.278Z,6.77
2017-08-10T20:46:05.536Z,7.43
2017-08-10T20:48:31.518Z,6.67
2017-08-10T20:50:58.228Z,6.60
2017-08-10T20:53:24.201Z,6.07
2017-08-10T20:55:50.942Z,6.60
2017-08-10T20:58:16.886Z,5.53
2017-08-10T21:00:42.844Z,6.67
2017-08-10T21:03:08.814Z,6.23
2017-08-10T21:05:34.773Z,6.30
2017-08-10T21:08:01.871Z,6.10
2017-08-10T21:10:31.864Z,6.27
2017-08-10T21:12:57.869Z,6.30
2017-08-10T21:15:23.809Z,6.87
2017-08-10T21:17:49.765Z,6.23
2017-08-10T21:20:15.733Z,6.10
2017-08-10T21:22:51.914Z,5.33
2017-08-10T21:25:17.893Z,5.80
2017-08-10T21:27:43.848Z,6.17
2017-08-10T21:30:10.458Z,5.90
2017-08-10T21:32:36.457Z,7.03
2017-08-10T21:35:02.461Z,6.30
2017-08-10T21:37:28.444Z,6.47
2017-08-10T21:39:54.392Z,6.17
2017-08-10T21:42:20.391Z,6.80
2017-08-10T21:44:46.348Z,7.07
2017-08-10T21:47:13.183Z,6.47
2017-08-10T21:49:39.139Z,5.93
2017-08-10T21:52:05.838Z,5.17
2017-08-10T21:54:31.811Z,6.13
2017-08-10T21:56:57.835Z,6.37
2017-08-10T21:59:24.537Z,6.30
2017-08-10T22:01:50.474Z,5.37
2017-08-10T22:04:16.431Z,5.40
2017-08-10T22:06:43.132Z,5.77
2017-08-10T22:09:09.086Z,5.03
2017-08-10T22:11:35.044Z,5.40
2017-08-10T22:14:01.108Z,5.70
2017-08-10T22:16:27.033Z,4.90
2017-08-10T22:18:52.997Z,4.43
2017-08-10T22:21:18.942Z,4.63
2017-08-10T22:23:44.913Z,4.70
2017-08-10T22:26:10.879Z,4.17
2017-08-10T22:28:36.834Z,3.90
2017-08-10T22:31:30.370Z,4.90
2017-08-10T22:33:56.352Z,4.10
2017-08-10T22:36:22.282Z,4.77
2017-08-10T22:38:48.238Z,4.23
2017-08-10T22:41:14.198Z,3.83
2017-08-10T22:43:40.918Z,4.53
2017-08-10T22:46:06.873Z,4.30
2017-08-10T22:48:33.556Z,4.30
2017-08-10T22:50:59.497Z,4.07
2017-08-10T22:53:25.437Z,4.93
2017-08-10T22:55:51.408Z,4.33
2017-08-10T22:58:18.629Z,4.37
2017-08-10T23:00:44.662Z,5.57
2017-08-10T23:03:10.614Z,4.37
2017-08-10T23:05:37.296Z,4.63
2017-08-10T23:08:03.270Z,4.60
2017-08-10T23:10:29.234Z,5.40
2017-08-10T23:12:55.229Z,5.40
2017-08-10T23:15:21.197Z,4.67
2017-08-10T23:17:47.164Z,4.87
2017-08-10T23:20:13.105Z,3.90
2017-08-10T23:22:39.070Z,4.00
2017-08-10T23:25:05.756Z,3.80
2017-08-10T23:27:31.731Z,3.73
2017-08-10T23:29:57.684Z,4.17
2017-08-10T23:35:19.303Z,3.67
2017-08-10T23:37:45.989Z,3.77
2017-08-10T23:40:11.940Z,3.77
2017-08-10T23:42:37.896Z,4.20
2017-08-10T23:45:04.576Z,4.97
2017-08-10T23:47:30.530Z,4.93
2017-08-10T23:49:56.496Z,5.47
2017-08-10T23:52:23.185Z,4.93
2017-08-10T23:54:49.135Z,5.13
2017-08-10T23:57:15.178Z,5.50
2017-08-10T23:59:41.902Z,4.57
